Main page
METAR-TAF:

METAR-TAF

Airports :

Dubai International Airport

Dubai, United Arab Emirates

latitude: 25-15-10N, longitude: 055-21-52E, elevation: 8 m

Current weather observation

The report was made 1 hour and 2 minutes ago, at 12:00 UTC
Wind 12 kt from the Northwest
Temperature 38°C
Humidity 48%
Pressure 997 hPa
Visibility: 7000 m

METAR: OMDB 201200Z 31012KT 7000 NSC 38/25 Q0997 NOSIG

Time: 17:02 (13:02 UTC)

Forecast

The report was made 2 hours and 8 minutes ago, at 10:54 UTC
Forecast valid from 20 at 12 UTC to 21 at 18 UTC
Wind 10 kt from the North/Northwest
Visibility: 8000 m
Becoming
from 20 at 19 UTC to 20 at 21 UTC
Wind 5 kt from the East
Becoming
from 21 at 07 UTC to 21 at 09 UTC
Wind 14 kt from the North/Northwest
Becoming
from 21 at 16 UTC to 21 at 18 UTC
Wind 5 kt from the Northeast

TAF: OMDB 201054Z 2012/2118 33010KT 8000 NSC BECMG 2019/2021 10005KT BECMG 2107/2109 34014KT BECMG 2116/2118 05005KT

Weather observations and forecasts of more than 4000 airports (METAR and TAF reports).

The available stations are represented by yellow and red dots on the map.

Hover mouse over dot to see the name of the station.

Then click to see weather observations and forecasts.

To change the map : click on the green buttons with a black cross to zoom in, on the green button with a dash to zoom out, or on the green arrows for adjacent maps.


METAR-TAF: